createdAt,value
2023-05-18T00:02:16.272Z,11.80
2023-05-18T00:04:44.223Z,16.40
2023-05-18T00:07:11.617Z,13.30
2023-05-18T00:09:38.793Z,14.60
2023-05-18T00:12:06.544Z,7.20
2023-05-18T00:14:33.909Z,7.50
2023-05-18T00:17:04.155Z,10.30
2023-05-18T00:19:31.630Z,9.20
2023-05-18T00:21:59.435Z,11.50
2023-05-18T00:24:26.552Z,26.10
2023-05-18T00:26:53.767Z,21.10
2023-05-18T00:29:21.085Z,33.60
2023-05-18T00:31:48.411Z,18.90
2023-05-18T00:34:16.645Z,19.30
2023-05-18T00:36:43.847Z,17.00
2023-05-18T00:39:11.485Z,11.10
2023-05-18T00:41:40.184Z,9.60
2023-05-18T00:44:07.473Z,7.80
2023-05-18T00:46:34.785Z,9.00
2023-05-18T00:49:02.732Z,11.80
2023-05-18T00:51:32.162Z,11.90
2023-05-18T00:54:01.673Z,10.80
2023-05-18T00:56:29.224Z,7.70
2023-05-18T00:58:57.458Z,9.90
2023-05-18T01:01:30.749Z,9.60
2023-05-18T01:04:02.397Z,13.40
2023-05-18T01:06:32.979Z,8.00
2023-05-18T01:09:04.334Z,15.20
2023-05-18T01:11:44.828Z,15.10
2023-05-18T01:14:33.029Z,11.60
2023-05-18T01:17:10.643Z,9.20
2023-05-18T01:19:41.852Z,6.80
2023-05-18T01:22:29.731Z,8.10
2023-05-18T01:25:04.906Z,10.60
2023-05-18T01:27:37.791Z,11.60
2023-05-18T01:30:05.667Z,12.50
2023-05-18T01:32:41.516Z,20.00
2023-05-18T01:35:09.670Z,11.60
2023-05-18T01:37:36.856Z,12.00
2023-05-18T01:40:05.703Z,9.60
2023-05-18T01:42:38.961Z,7.30
2023-05-18T01:45:14.335Z,8.40
2023-05-18T01:47:45.345Z,14.40
2023-05-18T01:50:19.066Z,9.20
2023-05-18T01:52:58.474Z,8.50
2023-05-18T01:55:31.126Z,14.90
2023-05-18T01:58:00.738Z,8.60
2023-05-18T02:00:28.046Z,9.50
2023-05-18T02:02:55.876Z,6.60
2023-05-18T02:05:23.542Z,10.10
2023-05-18T02:07:50.780Z,10.50
2023-05-18T02:10:18.265Z,11.50
2023-05-18T02:12:49.239Z,7.30
2023-05-18T02:15:16.671Z,11.70
2023-05-18T02:17:43.992Z,11.20
2023-05-18T02:20:12.674Z,8.50
2023-05-18T02:22:39.926Z,9.50
2023-05-18T02:25:07.627Z,7.10
2023-05-18T02:27:36.242Z,10.40
2023-05-18T02:30:08.937Z,6.50
2023-05-18T02:32:39.611Z,11.50
2023-05-18T02:35:08.443Z,12.40
2023-05-18T02:37:40.164Z,8.90
2023-05-18T02:40:10.923Z,10.00
2023-05-18T02:42:38.156Z,10.80
2023-05-18T02:45:06.400Z,9.70
2023-05-18T02:47:34.222Z,12.60
2023-05-18T02:50:01.682Z,11.50
2023-05-18T02:52:30.027Z,12.10
2023-05-18T02:54:57.357Z,9.70
2023-05-18T02:57:35.936Z,7.90
2023-05-18T03:00:11.763Z,5.20
2023-05-18T03:02:40.519Z,9.10
2023-05-18T03:05:08.457Z,9.00
2023-05-18T03:07:35.647Z,9.40
2023-05-18T03:10:04.452Z,7.40
2023-05-18T03:12:31.954Z,10.00
2023-05-18T03:14:59.342Z,14.90
2023-05-18T03:17:26.606Z,18.60
2023-05-18T03:19:54.086Z,20.60
2023-05-18T03:22:21.671Z,24.30
2023-05-18T03:24:51.482Z,16.20
2023-05-18T03:27:23.192Z,16.30
2023-05-18T03:29:50.732Z,8.90
2023-05-18T03:32:18.862Z,12.80
2023-05-18T03:34:47.874Z,11.00
2023-05-18T03:37:16.228Z,7.00
2023-05-18T03:39:44.061Z,10.70
2023-05-18T03:42:11.796Z,10.20
2023-05-18T03:44:38.953Z,10.40
2023-05-18T03:47:06.397Z,12.60
2023-05-18T03:49:34.537Z,13.30
2023-05-18T03:52:04.377Z,9.50
2023-05-18T03:54:32.827Z,10.50
2023-05-18T03:57:00.176Z,8.50
2023-05-18T03:59:27.484Z,9.90
2023-05-18T04:01:54.850Z,6.10
2023-05-18T04:04:23.798Z,12.10
2023-05-18T04:06:51.701Z,9.20
2023-05-18T04:09:19.344Z,8.30
2023-05-18T04:11:46.572Z,12.90
2023-05-18T04:14:14.277Z,8.00
2023-05-18T04:16:42.223Z,20.80
2023-05-18T04:19:10.633Z,26.10
2023-05-18T04:21:38.070Z,24.10
2023-05-18T04:24:07.222Z,22.80
2023-05-18T04:26:36.748Z,16.80
2023-05-18T04:29:04.481Z,13.40
2023-05-18T04:31:31.795Z,9.70
2023-05-18T04:34:00.719Z,12.50
2023-05-18T04:36:30.970Z,12.40
2023-05-18T04:39:03.756Z,10.30
2023-05-18T04:41:34.284Z,10.70
2023-05-18T04:44:02.154Z,13.50
2023-05-18T04:46:29.591Z,8.70
2023-05-18T04:48:58.205Z,7.40
2023-05-18T04:51:26.591Z,6.90
2023-05-18T04:53:55.833Z,7.60
2023-05-18T04:56:23.082Z,7.60
2023-05-18T04:58:50.793Z,8.30
2023-05-18T05:01:19.030Z,8.30
2023-05-18T05:03:46.343Z,13.40
2023-05-18T05:06:13.704Z,9.90
2023-05-18T05:08:41.044Z,13.50
2023-05-18T05:11:08.437Z,8.90
2023-05-18T05:13:36.365Z,12.80
2023-05-18T05:16:03.634Z,8.70
2023-05-18T05:18:30.846Z,11.30
2023-05-18T05:20:59.460Z,8.70
2023-05-18T05:23:27.318Z,12.80
2023-05-18T05:25:54.769Z,7.00
2023-05-18T05:28:22.049Z,6.90
2023-05-18T05:30:49.202Z,15.00
2023-05-18T05:33:16.547Z,7.60
2023-05-18T05:35:44.636Z,8.40
2023-05-18T05:38:12.418Z,10.20
2023-05-18T05:40:39.764Z,8.70
2023-05-18T05:43:07.015Z,11.20
2023-05-18T05:45:34.446Z,7.70
2023-05-18T05:48:04.907Z,10.20
2023-05-18T05:50:32.831Z,5.80
2023-05-18T05:53:01.877Z,3.50
2023-05-18T05:55:33.024Z,6.30
2023-05-18T05:58:00.413Z,5.90
2023-05-18T06:00:28.989Z,7.70
2023-05-18T06:03:00.763Z,6.70
2023-05-18T06:05:34.883Z,5.90
2023-05-18T06:08:02.940Z,13.50
2023-05-18T06:10:31.284Z,12.50
2023-05-18T06:12:58.803Z,7.70
2023-05-18T06:15:33.422Z,8.00
2023-05-18T06:18:00.821Z,6.80
2023-05-18T06:20:28.192Z,16.10
2023-05-18T06:22:56.768Z,17.20
2023-05-18T06:25:32.495Z,22.80
2023-05-18T06:28:09.170Z,37.70
2023-05-18T06:30:41.972Z,27.10
2023-05-18T06:33:21.558Z,20.70
2023-05-18T06:35:49.244Z,8.50
2023-05-18T06:38:16.431Z,7.60
2023-05-18T06:40:43.677Z,12.70
2023-05-18T06:43:11.021Z,8.20
2023-05-18T06:45:46.903Z,13.50
2023-05-18T06:48:20.564Z,11.30
2023-05-18T06:50:47.806Z,11.50
2023-05-18T06:53:15.313Z,18.00
2023-05-18T06:55:42.679Z,14.50
2023-05-18T06:58:10.282Z,8.10
2023-05-18T07:00:39.319Z,10.80
2023-05-18T07:03:08.531Z,3.50
2023-05-18T07:05:38.592Z,6.50
2023-05-18T07:08:07.578Z,6.50
2023-05-18T07:10:35.887Z,3.50
2023-05-18T07:13:03.235Z,3.40
2023-05-18T07:15:30.592Z,6.30
2023-05-18T07:17:58.071Z,3.50
2023-05-18T07:20:26.566Z,2.00
2023-05-18T07:22:55.906Z,7.30
2023-05-18T07:25:24.129Z,2.50
2023-05-18T07:27:54.804Z,4.30
2023-05-18T07:30:22.956Z,5.70
2023-05-18T07:32:51.470Z,3.60
2023-05-18T07:35:22.214Z,3.10
2023-05-18T07:37:51.991Z,3.20
2023-05-18T07:40:19.250Z,3.80
2023-05-18T07:42:46.572Z,7.70
2023-05-18T07:45:14.155Z,2.80
2023-05-18T07:47:41.474Z,2.90
2023-05-18T07:50:09.140Z,4.60
2023-05-18T07:52:36.839Z,2.90
2023-05-18T07:55:04.312Z,2.20
2023-05-18T07:57:31.533Z,6.00
2023-05-18T07:59:58.645Z,3.20
2023-05-18T08:02:26.011Z,1.80
2023-05-18T08:04:53.765Z,2.80
2023-05-18T08:07:21.578Z,4.20
2023-05-18T08:09:48.736Z,2.20
2023-05-18T08:12:16.051Z,2.20
2023-05-18T08:14:43.435Z,2.70
2023-05-18T08:17:10.930Z,1.60
2023-05-18T08:19:39.827Z,3.40
2023-05-18T08:22:08.922Z,1.00
2023-05-18T08:24:36.131Z,2.30
2023-05-18T08:27:03.770Z,2.00
2023-05-18T08:29:30.948Z,1.90
2023-05-18T08:31:58.153Z,7.90
2023-05-18T08:34:25.560Z,3.20
2023-05-18T08:36:52.823Z,7.50
2023-05-18T08:39:19.993Z,3.70
2023-05-18T08:41:53.081Z,2.00
2023-05-18T08:44:30.904Z,2.80
2023-05-18T08:46:58.888Z,5.40
2023-05-18T08:49:27.642Z,9.10
2023-05-18T08:51:57.703Z,12.50
2023-05-18T08:54:26.318Z,2.60
2023-05-18T08:56:54.097Z,2.90
2023-05-18T08:59:26.767Z,3.60
2023-05-18T09:01:55.262Z,3.00
2023-05-18T09:04:23.901Z,0.80
2023-05-18T09:06:53.271Z,4.90
2023-05-18T09:09:22.526Z,2.90
2023-05-18T09:11:50.532Z,2.40
2023-05-18T09:14:17.630Z,3.50
2023-05-18T09:16:44.857Z,1.20
2023-05-18T09:19:12.051Z,1.80
2023-05-18T09:21:39.316Z,2.70
2023-05-18T09:24:06.704Z,0.90
2023-05-18T09:26:34.191Z,3.00
2023-05-18T09:29:01.483Z,2.00
2023-05-18T09:31:30.859Z,3.60
2023-05-18T09:33:59.450Z,3.50
2023-05-18T09:36:28.513Z,2.80
2023-05-18T09:38:55.801Z,1.90
2023-05-18T09:41:27.162Z,6.50
2023-05-18T09:43:54.781Z,4.30
2023-05-18T09:46:22.230Z,3.90
2023-05-18T09:48:51.901Z,4.20
2023-05-18T09:51:19.315Z,3.80
2023-05-18T09:53:50.320Z,2.70
2023-05-18T09:56:18.351Z,2.50
2023-05-18T09:58:45.967Z,1.90
2023-05-18T10:01:13.177Z,2.30
2023-05-18T10:03:40.611Z,4.50
2023-05-18T10:06:09.570Z,3.30
2023-05-18T10:08:37.685Z,1.10
2023-05-18T10:11:06.063Z,1.70
2023-05-18T10:13:34.661Z,3.40
2023-05-18T10:16:04.373Z,2.80
2023-05-18T10:18:36.110Z,1.20
2023-05-18T10:21:06.070Z,3.10
2023-05-18T10:23:34.499Z,1.50
2023-05-18T10:26:05.461Z,2.70
2023-05-18T10:28:42.845Z,3.90
2023-05-18T10:31:10.761Z,0.90
2023-05-18T10:33:38.339Z,5.20
2023-05-18T10:36:06.505Z,2.80
2023-05-18T10:38:37.015Z,4.10
2023-05-18T10:41:06.193Z,3.80
2023-05-18T10:43:34.438Z,2.10
2023-05-18T10:46:02.064Z,5.20
2023-05-18T10:48:30.255Z,5.70
2023-05-18T10:50:58.458Z,1.70
2023-05-18T10:53:27.253Z,3.60
2023-05-18T10:55:54.584Z,2.60
2023-05-18T10:58:25.149Z,4.30
2023-05-18T11:00:59.768Z,2.30
2023-05-18T11:03:28.676Z,1.20
2023-05-18T11:06:10.596Z,2.40
2023-05-18T11:08:48.552Z,1.80
2023-05-18T11:11:18.923Z,3.20
2023-05-18T11:13:51.751Z,6.20
2023-05-18T11:16:20.090Z,1.70
2023-05-18T11:18:52.863Z,4.50
2023-05-18T11:21:51.704Z,19.30
2023-05-18T11:24:30.309Z,13.50
2023-05-18T11:26:58.698Z,2.30
2023-05-18T11:29:42.114Z,1.40
2023-05-18T11:32:30.426Z,2.30
2023-05-18T11:34:59.285Z,1.80
2023-05-18T11:37:55.921Z,1.90
2023-05-18T11:40:48.128Z,4.00
2023-05-18T11:43:25.291Z,5.60
2023-05-18T11:45:59.196Z,2.10
2023-05-18T11:48:30.254Z,8.00
2023-05-18T11:50:58.094Z,2.70
2023-05-18T11:53:26.928Z,2.20
2023-05-18T11:55:54.873Z,7.70
2023-05-18T11:58:24.796Z,5.50
2023-05-18T12:00:52.840Z,3.20
2023-05-18T12:03:25.522Z,3.20
2023-05-18T12:05:53.913Z,3.10
2023-05-18T12:08:21.920Z,5.40
2023-05-18T12:10:50.642Z,4.00
2023-05-18T12:13:18.090Z,38.10
2023-05-18T12:15:46.782Z,11.90
2023-05-18T12:18:14.440Z,9.20
2023-05-18T12:20:41.639Z,3.60
2023-05-18T12:23:09.001Z,4.00
2023-05-18T12:25:36.633Z,1.80
2023-05-18T12:28:05.023Z,2.80
2023-05-18T12:30:36.101Z,1.40
2023-05-18T12:33:04.164Z,3.10
2023-05-18T12:35:33.111Z,1.50
2023-05-18T12:38:01.502Z,1.50
2023-05-18T12:40:40.372Z,3.50
2023-05-18T12:43:07.460Z,1.20
2023-05-18T12:45:35.023Z,5.00
2023-05-18T12:48:06.238Z,1.20
2023-05-18T12:50:33.690Z,2.70
2023-05-18T12:53:01.998Z,6.60
2023-05-18T12:55:31.095Z,2.20
2023-05-18T12:58:02.187Z,7.60
2023-05-18T13:00:36.666Z,2.90
2023-05-18T13:03:09.740Z,2.00
2023-05-18T13:05:39.052Z,1.00
2023-05-18T13:08:06.437Z,2.50
2023-05-18T13:10:33.902Z,3.30
2023-05-18T13:13:03.936Z,5.10
2023-05-18T13:15:37.691Z,3.20
2023-05-18T13:18:12.373Z,5.20
2023-05-18T13:20:41.073Z,12.60
2023-05-18T13:23:11.565Z,2.90
2023-05-18T13:25:39.600Z,3.50
2023-05-18T13:28:07.492Z,2.00
2023-05-18T13:30:34.662Z,1.30
2023-05-18T13:33:01.821Z,1.60
2023-05-18T13:35:29.240Z,2.00
2023-05-18T13:37:56.622Z,1.50
2023-05-18T13:40:25.846Z,1.90
2023-05-18T13:42:53.477Z,5.10
2023-05-18T13:45:23.370Z,1.00
2023-05-18T13:47:51.741Z,6.80
2023-05-18T13:50:20.116Z,2.50
2023-05-18T13:52:47.784Z,2.30
2023-05-18T13:55:15.140Z,2.90
2023-05-18T13:57:42.560Z,1.20
2023-05-18T14:00:13.055Z,2.70
2023-05-18T14:02:41.431Z,2.70
2023-05-18T14:05:09.831Z,1.90
2023-05-18T14:07:38.085Z,2.30
2023-05-18T14:10:08.966Z,7.30
2023-05-18T14:12:36.333Z,11.70
2023-05-18T14:15:04.179Z,5.50
2023-05-18T14:17:31.554Z,5.30
2023-05-18T14:19:59.509Z,4.20
2023-05-18T14:22:26.770Z,3.20
2023-05-18T14:24:54.060Z,5.00
2023-05-18T14:27:21.318Z,5.40
2023-05-18T14:29:49.791Z,8.90
2023-05-18T14:32:17.987Z,5.30
2023-05-18T14:34:45.247Z,16.60
2023-05-18T14:37:12.637Z,2.50
2023-05-18T14:39:39.841Z,1.40
2023-05-18T14:42:07.295Z,5.20
2023-05-18T14:44:34.452Z,5.30
2023-05-18T14:47:01.764Z,1.70
2023-05-18T14:49:29.089Z,8.50
2023-05-18T14:51:56.261Z,7.70
2023-05-18T14:54:23.689Z,2.50
2023-05-18T14:56:50.932Z,2.00
2023-05-18T14:59:18.175Z,9.20
2023-05-18T15:01:45.399Z,2.90
2023-05-18T15:04:14.831Z,6.20
2023-05-18T15:06:42.122Z,3.50
2023-05-18T15:09:10.014Z,10.30
2023-05-18T15:11:37.113Z,7.00
2023-05-18T15:14:04.292Z,5.00
2023-05-18T15:16:31.857Z,6.10
2023-05-18T15:18:59.080Z,10.90
2023-05-18T15:21:26.316Z,13.20
2023-05-18T15:23:53.627Z,7.70
2023-05-18T15:26:21.461Z,7.30
2023-05-18T15:28:49.414Z,6.50
2023-05-18T15:31:17.162Z,3.70
2023-05-18T15:33:44.535Z,3.80
2023-05-18T15:36:11.835Z,8.10
2023-05-18T15:38:39.024Z,8.20
2023-05-18T15:41:06.234Z,5.50
2023-05-18T15:43:33.810Z,4.90
2023-05-18T15:46:01.085Z,4.50
2023-05-18T15:48:29.739Z,4.50
2023-05-18T15:50:56.804Z,6.10
2023-05-18T15:53:24.060Z,5.10
2023-05-18T15:55:57.415Z,7.70
2023-05-18T15:58:26.916Z,5.30
2023-05-18T16:00:54.324Z,3.80
2023-05-18T16:03:21.692Z,9.00
2023-05-18T16:05:49.056Z,2.70
2023-05-18T16:08:16.491Z,13.70
2023-05-18T16:10:43.680Z,3.40
2023-05-18T16:13:10.816Z,3.70
2023-05-18T16:15:37.948Z,11.50
2023-05-18T16:18:05.355Z,7.70
2023-05-18T16:20:32.703Z,3.90
2023-05-18T16:23:00.109Z,5.20
2023-05-18T16:25:28.791Z,8.80
2023-05-18T16:27:55.905Z,2.80
2023-05-18T16:30:23.232Z,3.90
2023-05-18T16:32:50.547Z,8.30
2023-05-18T16:35:17.676Z,22.20
2023-05-18T16:37:44.912Z,17.00
2023-05-18T16:40:12.178Z,9.40
2023-05-18T16:42:39.386Z,12.20
2023-05-18T16:45:06.993Z,8.10
2023-05-18T16:47:34.178Z,5.60
2023-05-18T16:50:01.458Z,3.90
2023-05-18T16:52:28.641Z,4.40
2023-05-18T16:54:55.868Z,7.10
2023-05-18T16:57:25.359Z,14.10
2023-05-18T16:59:53.863Z,17.40
2023-05-18T17:02:21.149Z,24.40
2023-05-18T17:04:49.960Z,69.10
2023-05-18T17:07:17.470Z,34.70
2023-05-18T17:09:44.836Z,31.20
2023-05-18T17:12:12.674Z,21.60
2023-05-18T17:14:39.914Z,13.50
2023-05-18T17:17:07.830Z,22.00
2023-05-18T17:19:35.448Z,20.00
2023-05-18T17:22:03.507Z,15.90
2023-05-18T17:24:31.046Z,8.40
2023-05-18T17:26:58.440Z,9.00
2023-05-18T17:29:25.782Z,10.90
2023-05-18T17:31:53.355Z,15.20
2023-05-18T17:34:20.738Z,12.00
2023-05-18T17:36:47.988Z,15.00
2023-05-18T17:39:18.189Z,26.50
2023-05-18T17:41:45.462Z,39.90
2023-05-18T17:44:16.605Z,81.80
2023-05-18T17:46:45.842Z,73.40
2023-05-18T17:49:14.005Z,60.70
2023-05-18T17:51:41.562Z,75.70
2023-05-18T17:54:09.093Z,89.80
2023-05-18T17:56:36.766Z,66.70
2023-05-18T17:59:05.295Z,94.10
2023-05-18T18:01:33.495Z,63.90
2023-05-18T18:04:01.088Z,54.50
2023-05-18T18:06:28.406Z,35.10
2023-05-18T18:08:57.926Z,17.80
2023-05-18T18:11:26.178Z,14.50
2023-05-18T18:13:53.997Z,11.40
2023-05-18T18:16:21.674Z,15.10
2023-05-18T18:18:49.204Z,20.10
2023-05-18T18:21:16.584Z,14.40
2023-05-18T18:23:43.742Z,16.80
2023-05-18T18:26:11.177Z,5.50
2023-05-18T18:28:38.416Z,12.80
2023-05-18T18:31:05.581Z,14.90
2023-05-18T18:33:32.976Z,13.50
2023-05-18T18:36:00.596Z,8.70
2023-05-18T18:38:28.767Z,9.80
2023-05-18T18:41:04.230Z,9.20
2023-05-18T18:45:59.321Z,9.30
2023-05-18T18:48:26.906Z,14.10
2023-05-18T18:50:54.175Z,14.30
2023-05-18T18:53:21.382Z,21.70
2023-05-18T18:55:48.650Z,10.70
2023-05-18T18:58:16.017Z,14.80
2023-05-18T19:00:43.901Z,14.10
2023-05-18T19:03:11.275Z,14.80
2023-05-18T19:05:39.007Z,10.00
2023-05-18T19:08:06.332Z,9.20
2023-05-18T19:10:34.442Z,11.70
2023-05-18T19:13:05.667Z,7.00
2023-05-18T19:15:34.778Z,10.20
2023-05-18T19:18:03.113Z,11.10
2023-05-18T19:20:30.494Z,5.50
2023-05-18T19:22:57.715Z,6.50
2023-05-18T19:25:26.447Z,5.90
2023-05-18T19:27:53.865Z,10.40
2023-05-18T19:30:22.983Z,37.80
2023-05-18T19:32:51.864Z,28.70
2023-05-18T19:35:20.534Z,15.80
2023-05-18T19:37:48.237Z,10.30
2023-05-18T19:40:16.379Z,8.50
2023-05-18T19:42:43.762Z,7.60
2023-05-18T19:45:10.928Z,11.40
2023-05-18T19:47:38.021Z,10.40
2023-05-18T19:50:06.296Z,5.80
2023-05-18T19:52:33.838Z,13.20
2023-05-18T19:55:02.481Z,20.00
2023-05-18T19:57:30.009Z,22.30
2023-05-18T19:59:58.119Z,16.10
2023-05-18T20:02:25.814Z,10.50
2023-05-18T20:04:55.917Z,8.30
2023-05-18T20:07:23.994Z,9.60
2023-05-18T20:09:53.209Z,15.80
2023-05-18T20:12:20.554Z,19.50
2023-05-18T20:14:48.555Z,24.90
2023-05-18T20:17:17.005Z,51.00
2023-05-18T20:19:49.894Z,62.50
2023-05-18T20:22:18.145Z,42.50
2023-05-18T20:24:46.212Z,170.70
2023-05-18T20:27:16.624Z,128.40
2023-05-18T20:29:43.916Z,78.20
2023-05-18T20:32:11.237Z,35.00
2023-05-18T20:34:38.440Z,25.40
2023-05-18T20:37:08.507Z,26.30
2023-05-18T20:39:37.752Z,23.90
2023-05-18T20:42:05.708Z,20.60
2023-05-18T20:44:35.040Z,26.30
2023-05-18T20:47:02.782Z,26.20
2023-05-18T20:49:30.655Z,21.60
2023-05-18T20:51:57.995Z,17.80
2023-05-18T20:54:25.166Z,18.80
2023-05-18T20:56:52.414Z,21.30
2023-05-18T20:59:19.638Z,27.40
2023-05-18T21:01:48.259Z,22.80
2023-05-18T21:04:17.271Z,19.10
2023-05-18T21:06:46.795Z,21.50
2023-05-18T21:09:14.165Z,25.60
2023-05-18T21:11:41.743Z,18.50
2023-05-18T21:14:09.011Z,17.30
2023-05-18T21:16:36.802Z,9.50
2023-05-18T21:19:04.171Z,8.70
2023-05-18T21:21:32.019Z,6.40
2023-05-18T21:23:59.508Z,6.20
2023-05-18T21:26:26.962Z,5.90
2023-05-18T21:28:54.384Z,6.90
2023-05-18T21:31:21.692Z,8.90
2023-05-18T21:33:48.988Z,5.40
2023-05-18T21:36:16.252Z,5.70
2023-05-18T21:38:43.373Z,4.60
2023-05-18T21:41:10.524Z,10.50
2023-05-18T21:43:37.690Z,5.60
2023-05-18T21:46:05.948Z,8.60
2023-05-18T21:48:35.006Z,8.40
2023-05-18T21:51:04.037Z,9.10
2023-05-18T21:53:31.216Z,6.90
2023-05-18T21:55:58.453Z,5.80
2023-05-18T21:58:25.630Z,7.00
2023-05-18T22:00:52.851Z,8.00
2023-05-18T22:03:20.101Z,7.30
2023-05-18T22:05:47.485Z,5.70
2023-05-18T22:08:14.613Z,9.00
2023-05-18T22:10:41.866Z,4.00
2023-05-18T22:13:09.347Z,7.70
2023-05-18T22:15:37.339Z,4.00
2023-05-18T22:18:04.642Z,7.60
2023-05-18T22:20:33.192Z,2.10
2023-05-18T22:23:00.651Z,2.40
2023-05-18T22:25:27.801Z,4.50
2023-05-18T22:27:55.645Z,4.60
2023-05-18T22:30:25.532Z,4.90
2023-05-18T22:32:52.707Z,10.20
2023-05-18T22:35:20.229Z,2.90
2023-05-18T22:37:47.329Z,2.50
2023-05-18T22:40:14.641Z,3.10
2023-05-18T22:42:41.975Z,3.70
2023-05-18T22:45:10.055Z,5.60
2023-05-18T22:47:39.118Z,2.00
2023-05-18T22:50:07.525Z,1.60
2023-05-18T22:52:35.296Z,3.00
2023-05-18T22:55:02.689Z,1.40
2023-05-18T22:57:29.809Z,4.60
2023-05-18T22:59:56.946Z,4.70
2023-05-18T23:02:24.018Z,1.90
2023-05-18T23:04:51.253Z,2.30
2023-05-18T23:07:18.350Z,1.50
2023-05-18T23:09:45.532Z,2.30
2023-05-18T23:12:12.696Z,1.50
2023-05-18T23:14:39.797Z,1.60
2023-05-18T23:17:07.329Z,4.80
2023-05-18T23:19:36.202Z,1.60
2023-05-18T23:22:04.000Z,2.20
2023-05-18T23:24:31.199Z,1.50
2023-05-18T23:26:58.405Z,3.30
2023-05-18T23:29:25.738Z,1.40
2023-05-18T23:31:52.881Z,1.80
2023-05-18T23:34:20.204Z,2.20
2023-05-18T23:36:53.382Z,1.60
2023-05-18T23:39:22.748Z,1.70
2023-05-18T23:41:54.160Z,2.20
2023-05-18T23:44:21.609Z,1.90
2023-05-18T23:46:48.989Z,2.20
2023-05-18T23:49:16.414Z,3.30
2023-05-18T23:51:44.329Z,4.80
2023-05-18T23:54:13.136Z,4.10
2023-05-18T23:56:40.613Z,4.80
2023-05-18T23:59:09.822Z,2.20
